sensor_id;sensor_type;location;lat;lon;timestamp;temperature;humidity
22299;DHT22;11317;51.072;17.036;2023-09-19T00:01:42;20.00;85.30
22299;DHT22;11317;51.072;17.036;2023-09-19T00:06:38;19.90;99.90
22299;DHT22;11317;51.072;17.036;2023-09-19T00:09:04;20.00;99.90
22299;DHT22;11317;51.072;17.036;2023-09-19T00:11:31;19.80;98.80
22299;DHT22;11317;51.072;17.036;2023-09-19T00:21:19;19.90;99.90
22299;DHT22;11317;51.072;17.036;2023-09-19T00:23:47;19.30;99.90
22299;DHT22;11317;51.072;17.036;2023-09-19T00:31:08;19.70;99.90
22299;DHT22;11317;51.072;17.036;2023-09-19T00:38:29;19.80;99.90
22299;DHT22;11317;51.072;17.036;2023-09-19T00:40:56;19.50;99.90
22299;DHT22;11317;51.072;17.036;2023-09-19T00:43:25;19.60;99.90
22299;DHT22;11317;51.072;17.036;2023-09-19T00:45:54;19.50;99.90
22299;DHT22;11317;51.072;17.036;2023-09-19T00:48:21;19.50;99.90
22299;DHT22;11317;51.072;17.036;2023-09-19T00:50:48;19.60;99.90
22299;DHT22;11317;51.072;17.036;2023-09-19T00:53:18;19.60;99.90
22299;DHT22;11317;51.072;17.036;2023-09-19T00:55:46;19.50;99.90
22299;DHT22;11317;51.072;17.036;2023-09-19T00:58:12;20.30;99.90
22299;DHT22;11317;51.072;17.036;2023-09-19T01:00:38;19.80;99.90
22299;DHT22;11317;51.072;17.036;2023-09-19T01:05:33;19.50;99.90
22299;DHT22;11317;51.072;17.036;2023-09-19T01:23:21;19.30;99.90
22299;DHT22;11317;51.072;17.036;2023-09-19T01:28:52;19.50;99.90
22299;DHT22;11317;51.072;17.036;2023-09-19T01:31:23;19.40;99.90
22299;DHT22;11317;51.072;17.036;2023-09-19T01:36:29;19.30;99.90
22299;DHT22;11317;51.072;17.036;2023-09-19T01:38:57;19.00;99.90
22299;DHT22;11317;51.072;17.036;2023-09-19T01:41:45;18.80;99.90
22299;DHT22;11317;51.072;17.036;2023-09-19T01:44:24;18.80;99.90
22299;DHT22;11317;51.072;17.036;2023-09-19T01:46:52;18.40;99.90
22299;DHT22;11317;51.072;17.036;2023-09-19T01:49:33;18.90;99.90
22299;DHT22;11317;51.072;17.036;2023-09-19T01:52:12;18.60;99.90
22299;DHT22;11317;51.072;17.036;2023-09-19T01:55:02;18.90;99.90
22299;DHT22;11317;51.072;17.036;2023-09-19T01:57:42;18.60;99.90
22299;DHT22;11317;51.072;17.036;2023-09-19T02:00:12;19.00;99.90
22299;DHT22;11317;51.072;17.036;2023-09-19T02:02:42;18.70;99.90
22299;DHT22;11317;51.072;17.036;2023-09-19T02:05:08;18.50;99.90
22299;DHT22;11317;51.072;17.036;2023-09-19T02:10:06;18.80;99.90
22299;DHT22;11317;51.072;17.036;2023-09-19T02:15:01;19.40;99.90
22299;DHT22;11317;51.072;17.036;2023-09-19T02:17:27;18.50;99.90
22299;DHT22;11317;51.072;17.036;2023-09-19T02:19:55;18.30;99.90
22299;DHT22;11317;51.072;17.036;2023-09-19T02:27:14;18.90;99.90
22299;DHT22;11317;51.072;17.036;2023-09-19T02:29:44;22.70;99.90
22299;DHT22;11317;51.072;17.036;2023-09-19T02:37:05;18.70;99.90
22299;DHT22;11317;51.072;17.036;2023-09-19T02:39:31;18.50;99.90
22299;DHT22;11317;51.072;17.036;2023-09-19T02:44:23;18.40;99.90
22299;DHT22;11317;51.072;17.036;2023-09-19T02:46:50;18.70;99.90
22299;DHT22;11317;51.072;17.036;2023-09-19T02:49:16;18.30;99.90
22299;DHT22;11317;51.072;17.036;2023-09-19T02:54:10;18.50;99.90
22299;DHT22;11317;51.072;17.036;2023-09-19T02:56:36;18.50;99.90
22299;DHT22;11317;51.072;17.036;2023-09-19T02:59:02;18.20;99.90
22299;DHT22;11317;51.072;17.036;2023-09-19T03:03:55;18.30;99.90
22299;DHT22;11317;51.072;17.036;2023-09-19T03:06:21;18.40;99.90
22299;DHT22;11317;51.072;17.036;2023-09-19T03:16:11;19.30;99.90
22299;DHT22;11317;51.072;17.036;2023-09-19T03:21:05;18.40;99.90
22299;DHT22;11317;51.072;17.036;2023-09-19T03:23:31;18.40;99.90
22299;DHT22;11317;51.072;17.036;2023-09-19T03:28:24;18.30;99.90
22299;DHT22;11317;51.072;17.036;2023-09-19T03:31:00;18.30;99.90
22299;DHT22;11317;51.072;17.036;2023-09-19T03:33:26;18.10;99.90
22299;DHT22;11317;51.072;17.036;2023-09-19T03:35:54;18.30;99.90
22299;DHT22;11317;51.072;17.036;2023-09-19T03:38:21;18.30;99.90
22299;DHT22;11317;51.072;17.036;2023-09-19T03:40:47;18.20;99.90
22299;DHT22;11317;51.072;17.036;2023-09-19T03:43:14;18.30;99.90
22299;DHT22;11317;51.072;17.036;2023-09-19T03:45:40;18.00;99.90
22299;DHT22;11317;51.072;17.036;2023-09-19T03:48:09;17.30;99.90
22299;DHT22;11317;51.072;17.036;2023-09-19T03:53:02;18.20;99.90
22299;DHT22;11317;51.072;17.036;2023-09-19T03:55:29;18.10;99.90
22299;DHT22;11317;51.072;17.036;2023-09-19T04:02:55;18.00;99.90
22299;DHT22;11317;51.072;17.036;2023-09-19T04:07:49;17.90;99.90
22299;DHT22;11317;51.072;17.036;2023-09-19T04:10:16;17.80;99.90
22299;DHT22;11317;51.072;17.036;2023-09-19T04:12:51;18.10;99.90
22299;DHT22;11317;51.072;17.036;2023-09-19T04:22:38;18.20;99.90
22299;DHT22;11317;51.072;17.036;2023-09-19T04:27:34;17.70;99.90
22299;DHT22;11317;51.072;17.036;2023-09-19T04:30:00;18.20;99.90
22299;DHT22;11317;51.072;17.036;2023-09-19T04:32:29;17.80;99.90
22299;DHT22;11317;51.072;17.036;2023-09-19T04:42:18;17.90;99.90
22299;DHT22;11317;51.072;17.036;2023-09-19T04:52:05;17.80;99.90
22299;DHT22;11317;51.072;17.036;2023-09-19T04:56:59;17.70;99.90
22299;DHT22;11317;51.072;17.036;2023-09-19T05:01:53;17.50;99.90
22299;DHT22;11317;51.072;17.036;2023-09-19T05:09:11;17.40;99.90
22299;DHT22;11317;51.072;17.036;2023-09-19T05:11:37;17.70;99.90
22299;DHT22;11317;51.072;17.036;2023-09-19T05:16:30;17.70;99.90
22299;DHT22;11317;51.072;17.036;2023-09-19T05:21:26;17.70;99.90
22299;DHT22;11317;51.072;17.036;2023-09-19T05:23:55;17.90;99.90
22299;DHT22;11317;51.072;17.036;2023-09-19T05:28:47;17.80;99.90
22299;DHT22;11317;51.072;17.036;2023-09-19T05:31:14;17.80;99.90
22299;DHT22;11317;51.072;17.036;2023-09-19T05:33:41;18.00;99.90
22299;DHT22;11317;51.072;17.036;2023-09-19T05:38:35;17.90;99.90
22299;DHT22;11317;51.072;17.036;2023-09-19T05:41:01;18.10;99.90
22299;DHT22;11317;51.072;17.036;2023-09-19T05:45:53;18.00;99.90
22299;DHT22;11317;51.072;17.036;2023-09-19T05:50:48;18.30;99.90
22299;DHT22;11317;51.072;17.036;2023-09-19T05:55:41;18.40;99.90
22299;DHT22;11317;51.072;17.036;2023-09-19T05:58:07;18.50;99.90
22299;DHT22;11317;51.072;17.036;2023-09-19T06:05:27;18.80;99.90
22299;DHT22;11317;51.072;17.036;2023-09-19T06:07:54;19.30;99.90
22299;DHT22;11317;51.072;17.036;2023-09-19T06:10:19;19.20;99.90
22299;DHT22;11317;51.072;17.036;2023-09-19T06:12:49;19.30;99.90
22299;DHT22;11317;51.072;17.036;2023-09-19T06:15:15;19.10;99.90
22299;DHT22;11317;51.072;17.036;2023-09-19T06:17:51;19.30;99.90
22299;DHT22;11317;51.072;17.036;2023-09-19T06:20:17;19.20;99.90
22299;DHT22;11317;51.072;17.036;2023-09-19T06:22:45;19.20;99.90
22299;DHT22;11317;51.072;17.036;2023-09-19T06:25:12;19.60;99.90
22299;DHT22;11317;51.072;17.036;2023-09-19T06:27:41;19.10;99.90
22299;DHT22;11317;51.072;17.036;2023-09-19T06:30:09;18.00;99.90
22299;DHT22;11317;51.072;17.036;2023-09-19T06:32:35;19.00;99.90
22299;DHT22;11317;51.072;17.036;2023-09-19T06:35:01;19.00;99.90
22299;DHT22;11317;51.072;17.036;2023-09-19T06:37:29;18.80;99.90
22299;DHT22;11317;51.072;17.036;2023-09-19T06:39:55;19.40;99.90
22299;DHT22;11317;51.072;17.036;2023-09-19T06:42:22;19.20;99.90
22299;DHT22;11317;51.072;17.036;2023-09-19T06:44:49;19.40;99.90
22299;DHT22;11317;51.072;17.036;2023-09-19T06:49:42;19.50;99.90
22299;DHT22;11317;51.072;17.036;2023-09-19T06:52:11;19.60;99.90
22299;DHT22;11317;51.072;17.036;2023-09-19T06:57:03;19.90;99.90
22299;DHT22;11317;51.072;17.036;2023-09-19T06:59:29;20.10;99.90
22299;DHT22;11317;51.072;17.036;2023-09-19T07:01:58;20.00;99.90
22299;DHT22;11317;51.072;17.036;2023-09-19T07:06:51;22.00;99.90
22299;DHT22;11317;51.072;17.036;2023-09-19T07:09:17;22.30;99.90
22299;DHT22;11317;51.072;17.036;2023-09-19T07:11:45;22.80;9.20
22299;DHT22;11317;51.072;17.036;2023-09-19T07:14:11;23.70;1.00
22299;DHT22;11317;51.072;17.036;2023-09-19T07:16:40;24.10;99.90
22299;DHT22;11317;51.072;17.036;2023-09-19T07:24:04;26.10;1.00
22299;DHT22;11317;51.072;17.036;2023-09-19T07:33:51;24.90;70.10
22299;DHT22;11317;51.072;17.036;2023-09-19T07:36:17;24.00;1.00
22299;DHT22;11317;51.072;17.036;2023-09-19T07:41:09;22.80;99.90
22299;DHT22;11317;51.072;17.036;2023-09-19T07:43:37;23.70;1.00
22299;DHT22;11317;51.072;17.036;2023-09-19T07:46:06;24.10;1.00
22299;DHT22;11317;51.072;17.036;2023-09-19T07:51:05;24.30;99.90
22299;DHT22;11317;51.072;17.036;2023-09-19T07:53:35;24.30;1.00
22299;DHT22;11317;51.072;17.036;2023-09-19T07:56:08;23.90;1.00
22299;DHT22;11317;51.072;17.036;2023-09-19T08:01:06;23.00;1.00
22299;DHT22;11317;51.072;17.036;2023-09-19T08:03:33;22.60;99.90
22299;DHT22;11317;51.072;17.036;2023-09-19T08:06:00;22.50;99.90
22299;DHT22;11317;51.072;17.036;2023-09-19T08:08:27;22.90;99.90
22299;DHT22;11317;51.072;17.036;2023-09-19T08:10:56;22.10;1.00
22299;DHT22;11317;51.072;17.036;2023-09-19T08:13:23;21.90;1.00
22299;DHT22;11317;51.072;17.036;2023-09-19T08:15:50;21.90;1.00
22299;DHT22;11317;51.072;17.036;2023-09-19T08:18:19;21.70;99.90
22299;DHT22;11317;51.072;17.036;2023-09-19T08:20:51;21.70;1.00
22299;DHT22;11317;51.072;17.036;2023-09-19T08:25:46;21.70;1.00
22299;DHT22;11317;51.072;17.036;2023-09-19T08:28:12;21.40;1.00
22299;DHT22;11317;51.072;17.036;2023-09-19T08:30:43;21.30;99.90
22299;DHT22;11317;51.072;17.036;2023-09-19T08:33:09;21.50;1.00
22299;DHT22;11317;51.072;17.036;2023-09-19T08:38:03;21.80;1.00
22299;DHT22;11317;51.072;17.036;2023-09-19T08:40:36;20.90;1.00
22299;DHT22;11317;51.072;17.036;2023-09-19T08:48:25;21.70;1.00
22299;DHT22;11317;51.072;17.036;2023-09-19T08:50:56;21.80;1.00
22299;DHT22;11317;51.072;17.036;2023-09-19T08:53:41;21.60;28.50
22299;DHT22;11317;51.072;17.036;2023-09-19T08:56:11;21.50;99.90
22299;DHT22;11317;51.072;17.036;2023-09-19T08:59:07;21.40;99.90
22299;DHT22;11317;51.072;17.036;2023-09-19T09:01:35;21.20;99.90
22299;DHT22;11317;51.072;17.036;2023-09-19T09:04:01;21.10;99.90
22299;DHT22;11317;51.072;17.036;2023-09-19T09:06:29;20.90;99.90
22299;DHT22;11317;51.072;17.036;2023-09-19T09:11:22;21.00;99.90
22299;DHT22;11317;51.072;17.036;2023-09-19T09:13:50;21.10;99.90
22299;DHT22;11317;51.072;17.036;2023-09-19T09:18:46;21.30;24.10
22299;DHT22;11317;51.072;17.036;2023-09-19T09:26:06;20.20;99.90
22299;DHT22;11317;51.072;17.036;2023-09-19T09:28:34;21.50;99.90
22299;DHT22;11317;51.072;17.036;2023-09-19T09:31:01;22.90;99.90
22299;DHT22;11317;51.072;17.036;2023-09-19T09:33:35;22.30;1.00
22299;DHT22;11317;51.072;17.036;2023-09-19T09:36:02;22.30;1.00
22299;DHT22;11317;51.072;17.036;2023-09-19T09:38:46;24.20;37.90
22299;DHT22;11317;51.072;17.036;2023-09-19T09:41:15;25.30;1.00
22299;DHT22;11317;51.072;17.036;2023-09-19T09:43:53;25.80;1.00
22299;DHT22;11317;51.072;17.036;2023-09-19T09:46:20;25.60;1.00
22299;DHT22;11317;51.072;17.036;2023-09-19T09:48:57;25.40;1.00
22299;DHT22;11317;51.072;17.036;2023-09-19T09:51:50;25.10;1.00
22299;DHT22;11317;51.072;17.036;2023-09-19T09:54:29;23.80;1.00
22299;DHT22;11317;51.072;17.036;2023-09-19T09:57:10;24.30;5.80
22299;DHT22;11317;51.072;17.036;2023-09-19T09:59:58;23.80;50.10
22299;DHT22;11317;51.072;17.036;2023-09-19T10:02:26;23.40;99.90
22299;DHT22;11317;51.072;17.036;2023-09-19T10:04:59;23.30;1.00
22299;DHT22;11317;51.072;17.036;2023-09-19T10:07:36;22.90;1.00
22299;DHT22;11317;51.072;17.036;2023-09-19T10:10:04;22.90;99.90
22299;DHT22;11317;51.072;17.036;2023-09-19T10:12:46;23.30;99.90
22299;DHT22;11317;51.072;17.036;2023-09-19T10:15:15;24.30;99.90
22299;DHT22;11317;51.072;17.036;2023-09-19T10:17:44;25.20;1.00
22299;DHT22;11317;51.072;17.036;2023-09-19T10:20:17;25.80;1.00
22299;DHT22;11317;51.072;17.036;2023-09-19T10:23:06;25.10;99.90
22299;DHT22;11317;51.072;17.036;2023-09-19T10:25:37;24.90;99.90
22299;DHT22;11317;51.072;17.036;2023-09-19T10:28:06;23.70;1.00
22299;DHT22;11317;51.072;17.036;2023-09-19T10:30:38;23.70;1.00
22299;DHT22;11317;51.072;17.036;2023-09-19T10:35:39;23.10;99.90
22299;DHT22;11317;51.072;17.036;2023-09-19T10:38:10;23.10;99.90
22299;DHT22;11317;51.072;17.036;2023-09-19T10:40:37;23.00;99.90
22299;DHT22;11317;51.072;17.036;2023-09-19T10:43:15;23.30;99.90
22299;DHT22;11317;51.072;17.036;2023-09-19T10:45:45;24.70;1.00
22299;DHT22;11317;51.072;17.036;2023-09-19T10:53:57;29.30;1.00
22299;DHT22;11317;51.072;17.036;2023-09-19T10:56:47;28.80;1.00
22299;DHT22;11317;51.072;17.036;2023-09-19T10:59:17;28.00;1.00
22299;DHT22;11317;51.072;17.036;2023-09-19T11:01:48;27.40;1.00
22299;DHT22;11317;51.072;17.036;2023-09-19T11:04:31;26.90;1.00
22299;DHT22;11317;51.072;17.036;2023-09-19T11:07:11;26.70;1.00
22299;DHT22;11317;51.072;17.036;2023-09-19T11:09:54;25.90;1.00
22299;DHT22;11317;51.072;17.036;2023-09-19T11:14:58;26.20;1.00
22299;DHT22;11317;51.072;17.036;2023-09-19T11:17:34;25.30;1.00
22299;DHT22;11317;51.072;17.036;2023-09-19T11:30:41;25.80;99.90
22299;DHT22;11317;51.072;17.036;2023-09-19T11:33:28;24.40;99.90
22299;DHT22;11317;51.072;17.036;2023-09-19T11:49:29;23.80;1.00
22299;DHT22;11317;51.072;17.036;2023-09-19T11:51:58;24.20;1.00
22299;DHT22;11317;51.072;17.036;2023-09-19T11:56:58;23.80;1.00
22299;DHT22;11317;51.072;17.036;2023-09-19T11:59:27;24.20;1.00
22299;DHT22;11317;51.072;17.036;2023-09-19T12:02:04;24.20;1.00
22299;DHT22;11317;51.072;17.036;2023-09-19T12:04:37;24.20;1.00
22299;DHT22;11317;51.072;17.036;2023-09-19T12:07:23;24.40;1.00
22299;DHT22;11317;51.072;17.036;2023-09-19T12:10:08;25.00;1.00
22299;DHT22;11317;51.072;17.036;2023-09-19T12:12:37;24.40;1.00
22299;DHT22;11317;51.072;17.036;2023-09-19T12:17:39;25.20;1.00
22299;DHT22;11317;51.072;17.036;2023-09-19T12:20:09;25.20;99.90
22299;DHT22;11317;51.072;17.036;2023-09-19T12:28:41;25.40;99.90
22299;DHT22;11317;51.072;17.036;2023-09-19T12:36:21;25.80;99.90
22299;DHT22;11317;51.072;17.036;2023-09-19T12:38:54;25.10;99.90
22299;DHT22;11317;51.072;17.036;2023-09-19T12:41:21;25.30;1.00
22299;DHT22;11317;51.072;17.036;2023-09-19T12:43:48;25.10;1.00
22299;DHT22;11317;51.072;17.036;2023-09-19T12:48:40;25.70;99.90
22299;DHT22;11317;51.072;17.036;2023-09-19T12:51:12;25.40;99.90
22299;DHT22;11317;51.072;17.036;2023-09-19T12:53:45;25.40;99.90
22299;DHT22;11317;51.072;17.036;2023-09-19T12:56:15;25.00;1.00
22299;DHT22;11317;51.072;17.036;2023-09-19T12:58:58;25.10;99.90
22299;DHT22;11317;51.072;17.036;2023-09-19T13:01:28;24.70;1.00
22299;DHT22;11317;51.072;17.036;2023-09-19T13:04:21;25.10;1.00
22299;DHT22;11317;51.072;17.036;2023-09-19T13:06:55;24.40;1.00
22299;DHT22;11317;51.072;17.036;2023-09-19T13:12:05;24.50;1.00
22299;DHT22;11317;51.072;17.036;2023-09-19T13:15:14;24.60;1.00
22299;DHT22;11317;51.072;17.036;2023-09-19T13:17:47;24.50;1.00
22299;DHT22;11317;51.072;17.036;2023-09-19T13:20:23;24.50;1.00
22299;DHT22;11317;51.072;17.036;2023-09-19T13:25:26;24.30;1.00
22299;DHT22;11317;51.072;17.036;2023-09-19T13:27:57;24.30;1.00
22299;DHT22;11317;51.072;17.036;2023-09-19T13:30:25;24.30;1.00
22299;DHT22;11317;51.072;17.036;2023-09-19T13:32:52;24.30;99.90
22299;DHT22;11317;51.072;17.036;2023-09-19T13:35:18;24.50;1.00
22299;DHT22;11317;51.072;17.036;2023-09-19T13:37:46;24.60;1.00
22299;DHT22;11317;51.072;17.036;2023-09-19T13:40:17;24.60;99.90
22299;DHT22;11317;51.072;17.036;2023-09-19T13:42:43;24.60;99.90
22299;DHT22;11317;51.072;17.036;2023-09-19T13:47:38;24.90;99.90
22299;DHT22;11317;51.072;17.036;2023-09-19T13:50:05;24.40;1.00
22299;DHT22;11317;51.072;17.036;2023-09-19T13:52:32;24.00;99.90
22299;DHT22;11317;51.072;17.036;2023-09-19T13:57:25;24.40;1.00
22299;DHT22;11317;51.072;17.036;2023-09-19T13:59:52;24.40;99.90
22299;DHT22;11317;51.072;17.036;2023-09-19T14:02:20;24.60;99.90
22299;DHT22;11317;51.072;17.036;2023-09-19T14:04:51;24.30;1.00
22299;DHT22;11317;51.072;17.036;2023-09-19T14:07:17;24.00;1.00
22299;DHT22;11317;51.072;17.036;2023-09-19T14:09:44;24.20;1.00
22299;DHT22;11317;51.072;17.036;2023-09-19T14:12:10;24.00;99.90
22299;DHT22;11317;51.072;17.036;2023-09-19T14:17:06;23.90;99.90
22299;DHT22;11317;51.072;17.036;2023-09-19T14:19:33;23.80;99.90
22299;DHT22;11317;51.072;17.036;2023-09-19T14:21:59;23.90;99.90
22299;DHT22;11317;51.072;17.036;2023-09-19T14:26:53;24.10;1.00
22299;DHT22;11317;51.072;17.036;2023-09-19T14:36:38;24.10;99.90
22299;DHT22;11317;51.072;17.036;2023-09-19T14:39:04;24.30;99.90
22299;DHT22;11317;51.072;17.036;2023-09-19T14:51:19;23.00;99.90
22299;DHT22;11317;51.072;17.036;2023-09-19T14:53:46;24.10;1.00
22299;DHT22;11317;51.072;17.036;2023-09-19T15:01:11;23.60;1.00
22299;DHT22;11317;51.072;17.036;2023-09-19T15:03:39;24.20;99.90
22299;DHT22;11317;51.072;17.036;2023-09-19T15:06:10;23.60;1.00
22299;DHT22;11317;51.072;17.036;2023-09-19T15:08:40;23.30;1.00
22299;DHT22;11317;51.072;17.036;2023-09-19T15:11:11;22.60;1.00
22299;DHT22;11317;51.072;17.036;2023-09-19T15:13:38;23.30;1.00
22299;DHT22;11317;51.072;17.036;2023-09-19T15:16:08;23.20;1.00
22299;DHT22;11317;51.072;17.036;2023-09-19T15:18:42;23.10;1.00
22299;DHT22;11317;51.072;17.036;2023-09-19T15:21:09;23.40;1.00
22299;DHT22;11317;51.072;17.036;2023-09-19T15:23:36;23.50;99.90
22299;DHT22;11317;51.072;17.036;2023-09-19T15:26:10;23.00;1.00
22299;DHT22;11317;51.072;17.036;2023-09-19T15:31:08;22.60;99.90
22299;DHT22;11317;51.072;17.036;2023-09-19T15:33:35;22.80;1.00
22299;DHT22;11317;51.072;17.036;2023-09-19T15:38:32;22.80;99.90
22299;DHT22;11317;51.072;17.036;2023-09-19T15:40:58;23.30;99.90
22299;DHT22;11317;51.072;17.036;2023-09-19T15:48:17;22.90;22.60
22299;DHT22;11317;51.072;17.036;2023-09-19T15:53:13;22.50;1.00
22299;DHT22;11317;51.072;17.036;2023-09-19T15:55:39;22.10;1.00
22299;DHT22;11317;51.072;17.036;2023-09-19T15:58:06;22.60;7.00
22299;DHT22;11317;51.072;17.036;2023-09-19T16:00:32;21.80;21.60
22299;DHT22;11317;51.072;17.036;2023-09-19T16:03:02;22.40;65.60
22299;DHT22;11317;51.072;17.036;2023-09-19T16:05:34;22.20;1.00
22299;DHT22;11317;51.072;17.036;2023-09-19T16:08:05;22.30;10.70
22299;DHT22;11317;51.072;17.036;2023-09-19T16:10:35;22.20;94.30
22299;DHT22;11317;51.072;17.036;2023-09-19T16:13:02;22.00;99.90
22299;DHT22;11317;51.072;17.036;2023-09-19T16:17:55;22.20;1.00
22299;DHT22;11317;51.072;17.036;2023-09-19T16:27:41;21.80;99.90
22299;DHT22;11317;51.072;17.036;2023-09-19T16:32:35;21.40;99.90
22299;DHT22;11317;51.072;17.036;2023-09-19T16:35:02;21.00;99.90
22299;DHT22;11317;51.072;17.036;2023-09-19T16:47:13;21.30;1.00
22299;DHT22;11317;51.072;17.036;2023-09-19T16:56:58;20.60;1.00
22299;DHT22;11317;51.072;17.036;2023-09-19T16:59:24;20.40;1.00
22299;DHT22;11317;51.072;17.036;2023-09-19T17:09:12;20.00;1.00
22299;DHT22;11317;51.072;17.036;2023-09-19T17:16:34;19.60;99.90
22299;DHT22;11317;51.072;17.036;2023-09-19T17:19:02;19.90;99.90
22299;DHT22;11317;51.072;17.036;2023-09-19T17:21:30;19.80;1.00
22299;DHT22;11317;51.072;17.036;2023-09-19T17:26:24;19.40;99.90
22299;DHT22;11317;51.072;17.036;2023-09-19T17:28:52;19.30;1.00
22299;DHT22;11317;51.072;17.036;2023-09-19T17:31:20;19.40;1.00
22299;DHT22;11317;51.072;17.036;2023-09-19T17:33:48;19.30;99.90
22299;DHT22;11317;51.072;17.036;2023-09-19T17:36:15;19.20;99.90
22299;DHT22;11317;51.072;17.036;2023-09-19T17:38:46;19.20;99.90
22299;DHT22;11317;51.072;17.036;2023-09-19T17:41:13;18.90;99.90
22299;DHT22;11317;51.072;17.036;2023-09-19T17:43:43;19.30;99.90
22299;DHT22;11317;51.072;17.036;2023-09-19T17:46:14;19.00;99.90
22299;DHT22;11317;51.072;17.036;2023-09-19T17:48:45;19.10;1.00
22299;DHT22;11317;51.072;17.036;2023-09-19T17:51:12;18.80;99.90
22299;DHT22;11317;51.072;17.036;2023-09-19T17:53:39;18.80;99.90
22299;DHT22;11317;51.072;17.036;2023-09-19T17:56:07;18.70;1.00
22299;DHT22;11317;51.072;17.036;2023-09-19T17:58:37;18.70;99.90
22299;DHT22;11317;51.072;17.036;2023-09-19T18:01:19;18.60;1.00
22299;DHT22;11317;51.072;17.036;2023-09-19T18:03:45;18.60;1.00
22299;DHT22;11317;51.072;17.036;2023-09-19T18:06:12;18.80;1.00
22299;DHT22;11317;51.072;17.036;2023-09-19T18:08:39;18.50;30.90
22299;DHT22;11317;51.072;17.036;2023-09-19T18:11:12;18.50;1.00
22299;DHT22;11317;51.072;17.036;2023-09-19T18:13:46;18.50;1.00
22299;DHT22;11317;51.072;17.036;2023-09-19T18:16:21;18.40;99.90
22299;DHT22;11317;51.072;17.036;2023-09-19T18:21:19;18.30;1.00
22299;DHT22;11317;51.072;17.036;2023-09-19T18:24:05;18.30;9.90
22299;DHT22;11317;51.072;17.036;2023-09-19T18:29:03;18.20;99.90
22299;DHT22;11317;51.072;17.036;2023-09-19T18:31:31;18.10;1.00
22299;DHT22;11317;51.072;17.036;2023-09-19T18:33:59;18.00;1.00
22299;DHT22;11317;51.072;17.036;2023-09-19T18:38:54;18.10;99.90
22299;DHT22;11317;51.072;17.036;2023-09-19T18:48:43;17.90;1.00
22299;DHT22;11317;51.072;17.036;2023-09-19T18:51:13;17.80;1.00
22299;DHT22;11317;51.072;17.036;2023-09-19T18:56:08;17.60;1.00
22299;DHT22;11317;51.072;17.036;2023-09-19T18:58:37;17.50;1.00
22299;DHT22;11317;51.072;17.036;2023-09-19T19:01:04;17.50;1.00
22299;DHT22;11317;51.072;17.036;2023-09-19T19:03:31;17.70;1.00
22299;DHT22;11317;51.072;17.036;2023-09-19T19:05:57;17.80;1.00
22299;DHT22;11317;51.072;17.036;2023-09-19T19:08:24;17.40;1.00
22299;DHT22;11317;51.072;17.036;2023-09-19T19:15:43;17.60;1.00
22299;DHT22;11317;51.072;17.036;2023-09-19T19:18:09;16.70;1.00
22299;DHT22;11317;51.072;17.036;2023-09-19T19:23:02;16.90;1.00
22299;DHT22;11317;51.072;17.036;2023-09-19T19:30:21;17.40;5.10
22299;DHT22;11317;51.072;17.036;2023-09-19T19:37:40;16.80;22.40
22299;DHT22;11317;51.072;17.036;2023-09-19T19:42:35;17.20;34.20
22299;DHT22;11317;51.072;17.036;2023-09-19T19:47:30;16.80;38.00
22299;DHT22;11317;51.072;17.036;2023-09-19T19:49:56;15.90;52.80
22299;DHT22;11317;51.072;17.036;2023-09-19T19:52:25;16.50;57.40
22299;DHT22;11317;51.072;17.036;2023-09-19T19:54:52;16.50;53.10
22299;DHT22;11317;51.072;17.036;2023-09-19T19:59:45;16.50;90.80
22299;DHT22;11317;51.072;17.036;2023-09-19T20:02:12;16.50;77.10
22299;DHT22;11317;51.072;17.036;2023-09-19T20:07:05;16.10;91.30
22299;DHT22;11317;51.072;17.036;2023-09-19T20:14:23;16.20;92.70
22299;DHT22;11317;51.072;17.036;2023-09-19T20:26:39;15.90;99.90
22299;DHT22;11317;51.072;17.036;2023-09-19T20:29:06;15.80;99.90
22299;DHT22;11317;51.072;17.036;2023-09-19T20:31:35;15.80;99.90
22299;DHT22;11317;51.072;17.036;2023-09-19T20:51:09;15.40;99.90
22299;DHT22;11317;51.072;17.036;2023-09-19T20:53:39;15.30;99.90
22299;DHT22;11317;51.072;17.036;2023-09-19T20:58:36;15.70;99.90
22299;DHT22;11317;51.072;17.036;2023-09-19T21:01:04;15.20;99.90
22299;DHT22;11317;51.072;17.036;2023-09-19T21:03:31;15.20;99.90
22299;DHT22;11317;51.072;17.036;2023-09-19T21:08:31;15.10;99.90
22299;DHT22;11317;51.072;17.036;2023-09-19T21:11:20;15.70;99.90
22299;DHT22;11317;51.072;17.036;2023-09-19T21:13:47;15.00;99.90
22299;DHT22;11317;51.072;17.036;2023-09-19T21:18:44;15.10;99.90
22299;DHT22;11317;51.072;17.036;2023-09-19T21:21:11;14.90;99.90
22299;DHT22;11317;51.072;17.036;2023-09-19T21:23:42;14.80;99.90
22299;DHT22;11317;51.072;17.036;2023-09-19T21:26:08;14.80;99.90
22299;DHT22;11317;51.072;17.036;2023-09-19T21:31:07;14.70;99.90
22299;DHT22;11317;51.072;17.036;2023-09-19T21:33:37;14.70;99.90
22299;DHT22;11317;51.072;17.036;2023-09-19T21:36:04;14.60;99.90
22299;DHT22;11317;51.072;17.036;2023-09-19T21:38:38;14.60;99.90
22299;DHT22;11317;51.072;17.036;2023-09-19T21:41:12;14.70;99.90
22299;DHT22;11317;51.072;17.036;2023-09-19T21:43:40;14.60;99.90
22299;DHT22;11317;51.072;17.036;2023-09-19T21:46:06;14.70;99.90
22299;DHT22;11317;51.072;17.036;2023-09-19T21:50:58;14.70;99.90
22299;DHT22;11317;51.072;17.036;2023-09-19T21:53:25;14.70;99.90
22299;DHT22;11317;51.072;17.036;2023-09-19T21:55:57;14.60;99.90
22299;DHT22;11317;51.072;17.036;2023-09-19T21:58:23;14.80;99.90
22299;DHT22;11317;51.072;17.036;2023-09-19T22:00:52;14.70;99.90
22299;DHT22;11317;51.072;17.036;2023-09-19T22:05:46;14.80;99.90
22299;DHT22;11317;51.072;17.036;2023-09-19T22:08:12;14.80;99.90
22299;DHT22;11317;51.072;17.036;2023-09-19T22:10:44;14.60;99.90
22299;DHT22;11317;51.072;17.036;2023-09-19T22:13:12;14.70;99.90
22299;DHT22;11317;51.072;17.036;2023-09-19T22:15:38;14.60;99.90
22299;DHT22;11317;51.072;17.036;2023-09-19T22:18:11;14.60;99.90
22299;DHT22;11317;51.072;17.036;2023-09-19T22:20:40;14.70;99.90
22299;DHT22;11317;51.072;17.036;2023-09-19T22:23:15;14.60;99.90
22299;DHT22;11317;51.072;17.036;2023-09-19T22:28:08;14.60;99.90
22299;DHT22;11317;51.072;17.036;2023-09-19T22:30:41;14.60;99.90
22299;DHT22;11317;51.072;17.036;2023-09-19T22:33:13;14.40;99.90
22299;DHT22;11317;51.072;17.036;2023-09-19T22:35:46;14.60;99.90
22299;DHT22;11317;51.072;17.036;2023-09-19T22:38:16;14.50;99.90
22299;DHT22;11317;51.072;17.036;2023-09-19T22:40:46;14.50;99.90
22299;DHT22;11317;51.072;17.036;2023-09-19T22:43:19;14.40;99.90
22299;DHT22;11317;51.072;17.036;2023-09-19T22:45:47;14.40;99.90